sensor_id;sensor_type;location;lat;lon;timestamp;temperature;humidity
12039;DHT22;6080;48.818;9.526;2023-05-07T03:02:58;11.50;99.90
12039;DHT22;6080;48.818;9.526;2023-05-07T03:05:24;11.60;99.90
12039;DHT22;6080;48.818;9.526;2023-05-07T03:07:50;11.60;99.90
12039;DHT22;6080;48.818;9.526;2023-05-07T03:10:15;11.60;99.90
12039;DHT22;6080;48.818;9.526;2023-05-07T03:12:41;11.50;99.90
12039;DHT22;6080;48.818;9.526;2023-05-07T03:15:08;11.50;99.90
12039;DHT22;6080;48.818;9.526;2023-05-07T03:17:33;11.40;99.90
12039;DHT22;6080;48.818;9.526;2023-05-07T03:19:59;11.30;99.90
12039;DHT22;6080;48.818;9.526;2023-05-07T03:22:25;11.30;99.90
12039;DHT22;6080;48.818;9.526;2023-05-07T03:24:51;11.30;99.90
12039;DHT22;6080;48.818;9.526;2023-05-07T03:27:16;11.30;99.90
12039;DHT22;6080;48.818;9.526;2023-05-07T03:29:42;11.20;99.90
12039;DHT22;6080;48.818;9.526;2023-05-07T03:32:08;11.20;99.90
12039;DHT22;6080;48.818;9.526;2023-05-07T03:34:34;11.00;99.90
12039;DHT22;6080;48.818;9.526;2023-05-07T03:37:00;10.80;99.90
12039;DHT22;6080;48.818;9.526;2023-05-07T03:39:26;10.80;99.90
12039;DHT22;6080;48.818;9.526;2023-05-07T03:41:51;10.80;99.90
12039;DHT22;6080;48.818;9.526;2023-05-07T03:44:18;10.80;99.90
12039;DHT22;6080;48.818;9.526;2023-05-07T03:46:43;10.90;99.90
12039;DHT22;6080;48.818;9.526;2023-05-07T03:49:09;11.00;99.90
12039;DHT22;6080;48.818;9.526;2023-05-07T03:51:35;10.90;99.90
12039;DHT22;6080;48.818;9.526;2023-05-07T03:54:01;10.90;99.90
12039;DHT22;6080;48.818;9.526;2023-05-07T03:56:27;10.90;99.90
12039;DHT22;6080;48.818;9.526;2023-05-07T03:58:53;10.90;99.90
12039;DHT22;6080;48.818;9.526;2023-05-07T04:01:19;10.90;99.90
12039;DHT22;6080;48.818;9.526;2023-05-07T04:03:45;10.80;99.90
12039;DHT22;6080;48.818;9.526;2023-05-07T04:06:11;10.80;99.90
12039;DHT22;6080;48.818;9.526;2023-05-07T04:08:37;10.80;99.90
12039;DHT22;6080;48.818;9.526;2023-05-07T04:11:03;10.80;99.90
12039;DHT22;6080;48.818;9.526;2023-05-07T04:13:30;10.80;99.90
12039;DHT22;6080;48.818;9.526;2023-05-07T04:15:56;10.90;99.90
12039;DHT22;6080;48.818;9.526;2023-05-07T04:18:21;10.90;99.90
12039;DHT22;6080;48.818;9.526;2023-05-07T04:20:48;10.90;99.90
12039;DHT22;6080;48.818;9.526;2023-05-07T04:23:15;11.00;99.90
12039;DHT22;6080;48.818;9.526;2023-05-07T04:25:41;11.00;99.90
12039;DHT22;6080;48.818;9.526;2023-05-07T04:28:07;11.10;99.90
12039;DHT22;6080;48.818;9.526;2023-05-07T04:30:32;11.20;99.90
12039;DHT22;6080;48.818;9.526;2023-05-07T04:32:58;11.20;99.90
12039;DHT22;6080;48.818;9.526;2023-05-07T04:35:24;11.20;99.90
12039;DHT22;6080;48.818;9.526;2023-05-07T04:37:50;11.30;99.90
12039;DHT22;6080;48.818;9.526;2023-05-07T04:40:16;11.30;99.90
12039;DHT22;6080;48.818;9.526;2023-05-07T04:42:41;11.40;99.90
12039;DHT22;6080;48.818;9.526;2023-05-07T04:45:07;11.50;99.90
12039;DHT22;6080;48.818;9.526;2023-05-07T04:47:34;11.60;99.90
12039;DHT22;6080;48.818;9.526;2023-05-07T04:50:00;11.70;99.90
12039;DHT22;6080;48.818;9.526;2023-05-07T04:52:25;11.80;99.90
12039;DHT22;6080;48.818;9.526;2023-05-07T04:54:52;12.00;99.90
12039;DHT22;6080;48.818;9.526;2023-05-07T04:57:17;12.20;99.90
12039;DHT22;6080;48.818;9.526;2023-05-07T04:59:44;12.50;99.90
12039;DHT22;6080;48.818;9.526;2023-05-07T05:02:10;12.60;99.90
12039;DHT22;6080;48.818;9.526;2023-05-07T05:04:37;12.80;99.90
12039;DHT22;6080;48.818;9.526;2023-05-07T05:07:03;13.00;99.90
12039;DHT22;6080;48.818;9.526;2023-05-07T05:09:31;13.20;99.90
12039;DHT22;6080;48.818;9.526;2023-05-07T05:11:57;13.20;99.90
12039;DHT22;6080;48.818;9.526;2023-05-07T05:14:23;13.20;99.90
12039;DHT22;6080;48.818;9.526;2023-05-07T05:16:49;13.20;99.90
12039;DHT22;6080;48.818;9.526;2023-05-07T05:19:15;13.20;99.90
12039;DHT22;6080;48.818;9.526;2023-05-07T05:21:41;13.20;99.90
12039;DHT22;6080;48.818;9.526;2023-05-07T05:24:06;13.30;99.90
12039;DHT22;6080;48.818;9.526;2023-05-07T05:26:32;13.40;99.90
12039;DHT22;6080;48.818;9.526;2023-05-07T05:28:58;13.40;99.90
12039;DHT22;6080;48.818;9.526;2023-05-07T05:31:24;13.40;99.90
12039;DHT22;6080;48.818;9.526;2023-05-07T05:33:49;13.40;99.90
12039;DHT22;6080;48.818;9.526;2023-05-07T05:36:15;13.30;99.90
12039;DHT22;6080;48.818;9.526;2023-05-07T05:38:41;13.30;99.90
12039;DHT22;6080;48.818;9.526;2023-05-07T05:41:07;13.30;99.90
12039;DHT22;6080;48.818;9.526;2023-05-07T05:43:33;13.40;99.90
12039;DHT22;6080;48.818;9.526;2023-05-07T05:45:58;13.90;99.90
12039;DHT22;6080;48.818;9.526;2023-05-07T05:48:25;14.50;99.90
12039;DHT22;6080;48.818;9.526;2023-05-07T05:50:51;15.30;99.90
12039;DHT22;6080;48.818;9.526;2023-05-07T05:53:17;15.90;99.90
12039;DHT22;6080;48.818;9.526;2023-05-07T05:55:43;16.90;99.90
12039;DHT22;6080;48.818;9.526;2023-05-07T05:58:09;17.80;99.90
12039;DHT22;6080;48.818;9.526;2023-05-07T06:00:35;18.60;99.90
12039;DHT22;6080;48.818;9.526;2023-05-07T06:03:01;19.30;99.90
12039;DHT22;6080;48.818;9.526;2023-05-07T06:05:26;19.80;99.90
12039;DHT22;6080;48.818;9.526;2023-05-07T06:07:52;20.30;99.90
12039;DHT22;6080;48.818;9.526;2023-05-07T06:10:18;20.60;99.90
12039;DHT22;6080;48.818;9.526;2023-05-07T06:12:44;20.60;99.90
12039;DHT22;6080;48.818;9.526;2023-05-07T06:15:10;20.50;99.90
12039;DHT22;6080;48.818;9.526;2023-05-07T06:17:36;20.40;99.90
12039;DHT22;6080;48.818;9.526;2023-05-07T06:20:02;20.80;99.90
12039;DHT22;6080;48.818;9.526;2023-05-07T06:22:28;21.30;99.90
12039;DHT22;6080;48.818;9.526;2023-05-07T06:24:53;21.80;99.90
12039;DHT22;6080;48.818;9.526;2023-05-07T06:27:19;22.00;99.90
12039;DHT22;6080;48.818;9.526;2023-05-07T06:29:47;22.50;99.90
12039;DHT22;6080;48.818;9.526;2023-05-07T06:32:14;22.70;99.90
12039;DHT22;6080;48.818;9.526;2023-05-07T06:34:40;22.90;99.90
12039;DHT22;6080;48.818;9.526;2023-05-07T06:37:06;22.90;99.90
12039;DHT22;6080;48.818;9.526;2023-05-07T06:39:32;22.70;99.90
12039;DHT22;6080;48.818;9.526;2023-05-07T06:42:00;22.20;99.90
12039;DHT22;6080;48.818;9.526;2023-05-07T06:44:26;21.60;99.90
12039;DHT22;6080;48.818;9.526;2023-05-07T06:46:52;21.10;99.90
12039;DHT22;6080;48.818;9.526;2023-05-07T06:49:18;21.10;99.90
12039;DHT22;6080;48.818;9.526;2023-05-07T06:51:43;21.00;99.90
12039;DHT22;6080;48.818;9.526;2023-05-07T06:54:09;20.80;99.90
12039;DHT22;6080;48.818;9.526;2023-05-07T06:56:35;21.10;99.90
12039;DHT22;6080;48.818;9.526;2023-05-07T06:59:02;21.30;99.90
12039;DHT22;6080;48.818;9.526;2023-05-07T07:01:28;20.90;99.90
12039;DHT22;6080;48.818;9.526;2023-05-07T07:03:54;20.60;99.90
12039;DHT22;6080;48.818;9.526;2023-05-07T07:06:20;20.70;99.90
12039;DHT22;6080;48.818;9.526;2023-05-07T07:08:45;20.80;99.90
12039;DHT22;6080;48.818;9.526;2023-05-07T07:11:11;20.70;99.90
12039;DHT22;6080;48.818;9.526;2023-05-07T07:13:37;21.10;99.90
12039;DHT22;6080;48.818;9.526;2023-05-07T07:16:03;21.70;99.90
12039;DHT22;6080;48.818;9.526;2023-05-07T07:18:29;22.20;99.90
12039;DHT22;6080;48.818;9.526;2023-05-07T07:20:55;22.70;99.90
12039;DHT22;6080;48.818;9.526;2023-05-07T07:23:20;23.00;99.90
12039;DHT22;6080;48.818;9.526;2023-05-07T07:25:47;23.60;99.90
12039;DHT22;6080;48.818;9.526;2023-05-07T07:28:12;23.80;99.90
12039;DHT22;6080;48.818;9.526;2023-05-07T07:30:38;23.90;99.90
12039;DHT22;6080;48.818;9.526;2023-05-07T07:33:04;24.40;99.90
12039;DHT22;6080;48.818;9.526;2023-05-07T07:35:31;24.50;99.90
12039;DHT22;6080;48.818;9.526;2023-05-07T07:37:57;23.80;99.60
12039;DHT22;6080;48.818;9.526;2023-05-07T07:40:23;23.80;99.60
12039;DHT22;6080;48.818;9.526;2023-05-07T07:42:49;23.80;99.30
12039;DHT22;6080;48.818;9.526;2023-05-07T07:45:14;23.60;99.50
12039;DHT22;6080;48.818;9.526;2023-05-07T07:47:40;23.40;99.90
12039;DHT22;6080;48.818;9.526;2023-05-07T07:50:07;23.90;99.90
12039;DHT22;6080;48.818;9.526;2023-05-07T07:52:33;23.70;99.60
12039;DHT22;6080;48.818;9.526;2023-05-07T07:54:59;23.60;99.90
12039;DHT22;6080;48.818;9.526;2023-05-07T07:57:25;23.60;99.90
12039;DHT22;6080;48.818;9.526;2023-05-07T07:59:51;23.60;99.90
12039;DHT22;6080;48.818;9.526;2023-05-07T08:02:17;23.60;99.50
12039;DHT22;6080;48.818;9.526;2023-05-07T08:04:43;24.10;99.90
12039;DHT22;6080;48.818;9.526;2023-05-07T08:07:12;24.80;98.30
12039;DHT22;6080;48.818;9.526;2023-05-07T08:09:38;25.40;98.10
12039;DHT22;6080;48.818;9.526;2023-05-07T08:12:05;26.00;95.30
12039;DHT22;6080;48.818;9.526;2023-05-07T08:14:31;25.10;96.10
12039;DHT22;6080;48.818;9.526;2023-05-07T08:16:57;25.00;96.90
12039;DHT22;6080;48.818;9.526;2023-05-07T08:19:23;25.00;97.10
12039;DHT22;6080;48.818;9.526;2023-05-07T08:21:48;25.20;97.40
12039;DHT22;6080;48.818;9.526;2023-05-07T08:24:15;25.00;96.30
12039;DHT22;6080;48.818;9.526;2023-05-07T08:26:41;24.50;97.20
12039;DHT22;6080;48.818;9.526;2023-05-07T08:29:07;24.40;97.80
12039;DHT22;6080;48.818;9.526;2023-05-07T08:31:33;24.80;97.60
12039;DHT22;6080;48.818;9.526;2023-05-07T08:33:59;25.00;97.00
12039;DHT22;6080;48.818;9.526;2023-05-07T08:36:25;24.90;97.40
12039;DHT22;6080;48.818;9.526;2023-05-07T08:38:52;25.40;97.00
12039;DHT22;6080;48.818;9.526;2023-05-07T08:41:18;26.10;95.50
12039;DHT22;6080;48.818;9.526;2023-05-07T08:43:47;26.80;94.90
12039;DHT22;6080;48.818;9.526;2023-05-07T08:46:21;26.90;93.40
12039;DHT22;6080;48.818;9.526;2023-05-07T08:48:50;27.00;93.20
12039;DHT22;6080;48.818;9.526;2023-05-07T08:51:18;26.70;91.50
12039;DHT22;6080;48.818;9.526;2023-05-07T08:53:45;26.30;92.60
12039;DHT22;6080;48.818;9.526;2023-05-07T08:56:11;26.20;91.60
12039;DHT22;6080;48.818;9.526;2023-05-07T08:58:37;26.20;92.40
12039;DHT22;6080;48.818;9.526;2023-05-07T09:01:14;26.00;91.70
12039;DHT22;6080;48.818;9.526;2023-05-07T09:03:43;26.00;92.20
12039;DHT22;6080;48.818;9.526;2023-05-07T09:06:09;26.40;90.70
12039;DHT22;6080;48.818;9.526;2023-05-07T09:08:35;26.20;90.30
12039;DHT22;6080;48.818;9.526;2023-05-07T09:11:02;26.30;91.30
12039;DHT22;6080;48.818;9.526;2023-05-07T09:13:28;26.40;90.10
12039;DHT22;6080;48.818;9.526;2023-05-07T09:15:54;26.40;90.10
12039;DHT22;6080;48.818;9.526;2023-05-07T09:18:20;26.70;88.70
12039;DHT22;6080;48.818;9.526;2023-05-07T09:20:46;26.40;88.60
12039;DHT22;6080;48.818;9.526;2023-05-07T09:23:12;26.30;88.60
12039;DHT22;6080;48.818;9.526;2023-05-07T09:25:38;26.90;89.40
12039;DHT22;6080;48.818;9.526;2023-05-07T09:28:04;27.50;86.80
12039;DHT22;6080;48.818;9.526;2023-05-07T09:30:32;27.80;84.40
12039;DHT22;6080;48.818;9.526;2023-05-07T09:33:00;28.10;83.20
12039;DHT22;6080;48.818;9.526;2023-05-07T09:35:26;28.30;80.60
12039;DHT22;6080;48.818;9.526;2023-05-07T09:37:57;28.00;80.00
12039;DHT22;6080;48.818;9.526;2023-05-07T09:40:29;27.50;81.60
12039;DHT22;6080;48.818;9.526;2023-05-07T09:42:56;27.80;81.10
12039;DHT22;6080;48.818;9.526;2023-05-07T09:45:25;27.80;81.00
12039;DHT22;6080;48.818;9.526;2023-05-07T09:47:55;28.10;80.80
12039;DHT22;6080;48.818;9.526;2023-05-07T09:50:26;28.70;78.90
12039;DHT22;6080;48.818;9.526;2023-05-07T09:52:54;28.30;80.50
12039;DHT22;6080;48.818;9.526;2023-05-07T09:55:21;28.30;77.90
12039;DHT22;6080;48.818;9.526;2023-05-07T09:57:50;28.10;76.90
12039;DHT22;6080;48.818;9.526;2023-05-07T10:00:21;27.60;77.80
12039;DHT22;6080;48.818;9.526;2023-05-07T10:02:51;27.40;79.40
12039;DHT22;6080;48.818;9.526;2023-05-07T10:05:21;27.40;78.80
12039;DHT22;6080;48.818;9.526;2023-05-07T10:07:48;27.60;77.30
12039;DHT22;6080;48.818;9.526;2023-05-07T10:10:15;28.20;76.20
12039;DHT22;6080;48.818;9.526;2023-05-07T10:12:41;28.80;74.70
12039;DHT22;6080;48.818;9.526;2023-05-07T10:15:11;29.40;72.70
12039;DHT22;6080;48.818;9.526;2023-05-07T10:17:39;30.10;70.00
12039;DHT22;6080;48.818;9.526;2023-05-07T10:20:06;30.30;68.80
12039;DHT22;6080;48.818;9.526;2023-05-07T10:22:48;30.10;68.00
12039;DHT22;6080;48.818;9.526;2023-05-07T10:25:24;29.20;70.30
12039;DHT22;6080;48.818;9.526;2023-05-07T10:27:52;28.10;73.00
12039;DHT22;6080;48.818;9.526;2023-05-07T10:32:59;27.70;74.50
12039;DHT22;6080;48.818;9.526;2023-05-07T10:35:36;28.10;74.30
12039;DHT22;6080;48.818;9.526;2023-05-07T10:38:03;28.30;73.40
12039;DHT22;6080;48.818;9.526;2023-05-07T10:40:31;28.40;72.90
12039;DHT22;6080;48.818;9.526;2023-05-07T10:42:58;29.00;72.50
12039;DHT22;6080;48.818;9.526;2023-05-07T10:45:28;29.60;69.90
12039;DHT22;6080;48.818;9.526;2023-05-07T10:48:12;30.20;68.80
12039;DHT22;6080;48.818;9.526;2023-05-07T10:50:43;30.70;66.30
12039;DHT22;6080;48.818;9.526;2023-05-07T10:55:48;28.90;68.30
12039;DHT22;6080;48.818;9.526;2023-05-07T10:58:24;29.30;69.60
12039;DHT22;6080;48.818;9.526;2023-05-07T11:01:02;29.20;68.10
12039;DHT22;6080;48.818;9.526;2023-05-07T11:03:28;29.20;67.70
12039;DHT22;6080;48.818;9.526;2023-05-07T11:06:14;29.70;67.20
12039;DHT22;6080;48.818;9.526;2023-05-07T11:11:18;30.20;65.00
12039;DHT22;6080;48.818;9.526;2023-05-07T11:13:48;29.80;64.40
12039;DHT22;6080;48.818;9.526;2023-05-07T11:16:25;29.80;64.50
12039;DHT22;6080;48.818;9.526;2023-05-07T11:18:54;30.10;64.70
12039;DHT22;6080;48.818;9.526;2023-05-07T11:21:37;30.60;64.40
12039;DHT22;6080;48.818;9.526;2023-05-07T11:24:05;30.00;64.40
12039;DHT22;6080;48.818;9.526;2023-05-07T11:26:42;29.30;65.70
12039;DHT22;6080;48.818;9.526;2023-05-07T11:29:14;28.90;66.50
12039;DHT22;6080;48.818;9.526;2023-05-07T11:31:40;29.50;65.50
12039;DHT22;6080;48.818;9.526;2023-05-07T11:34:06;29.90;64.80
12039;DHT22;6080;48.818;9.526;2023-05-07T11:36:33;30.60;61.80
12039;DHT22;6080;48.818;9.526;2023-05-07T11:38:59;30.20;61.50
12039;DHT22;6080;48.818;9.526;2023-05-07T11:41:35;29.60;63.40
12039;DHT22;6080;48.818;9.526;2023-05-07T11:44:02;28.90;65.80
12039;DHT22;6080;48.818;9.526;2023-05-07T11:46:28;28.60;65.40
12039;DHT22;6080;48.818;9.526;2023-05-07T11:48:55;28.20;66.30
12039;DHT22;6080;48.818;9.526;2023-05-07T11:51:23;28.00;66.20
12039;DHT22;6080;48.818;9.526;2023-05-07T11:53:50;28.20;65.10
12039;DHT22;6080;48.818;9.526;2023-05-07T11:56:17;28.20;64.60
12039;DHT22;6080;48.818;9.526;2023-05-07T11:58:45;28.50;64.80
12039;DHT22;6080;48.818;9.526;2023-05-07T12:01:12;28.40;65.20
12039;DHT22;6080;48.818;9.526;2023-05-07T12:03:43;27.70;65.90
12039;DHT22;6080;48.818;9.526;2023-05-07T12:06:12;27.60;66.60
12039;DHT22;6080;48.818;9.526;2023-05-07T12:08:39;27.70;68.00
12039;DHT22;6080;48.818;9.526;2023-05-07T12:11:11;27.50;67.40
12039;DHT22;6080;48.818;9.526;2023-05-07T12:13:38;27.20;66.70
12039;DHT22;6080;48.818;9.526;2023-05-07T12:16:04;27.20;66.90
12039;DHT22;6080;48.818;9.526;2023-05-07T12:18:31;27.20;67.10
12039;DHT22;6080;48.818;9.526;2023-05-07T12:20:57;27.30;67.30
12039;DHT22;6080;48.818;9.526;2023-05-07T12:23:24;27.20;67.10
12039;DHT22;6080;48.818;9.526;2023-05-07T12:25:50;26.70;69.60
12039;DHT22;6080;48.818;9.526;2023-05-07T12:28:17;26.60;68.90
12039;DHT22;6080;48.818;9.526;2023-05-07T12:30:44;26.40;69.00
12039;DHT22;6080;48.818;9.526;2023-05-07T12:33:11;26.20;68.80
12039;DHT22;6080;48.818;9.526;2023-05-07T12:35:41;26.30;68.30
12039;DHT22;6080;48.818;9.526;2023-05-07T12:38:12;26.20;67.20
12039;DHT22;6080;48.818;9.526;2023-05-07T12:40:46;26.00;68.70
12039;DHT22;6080;48.818;9.526;2023-05-07T12:43:17;25.90;69.60
12039;DHT22;6080;48.818;9.526;2023-05-07T12:45:43;25.70;71.60
12039;DHT22;6080;48.818;9.526;2023-05-07T12:48:10;25.60;71.10
12039;DHT22;6080;48.818;9.526;2023-05-07T12:50:36;25.40;71.50
12039;DHT22;6080;48.818;9.526;2023-05-07T12:53:06;25.30;72.10
12039;DHT22;6080;48.818;9.526;2023-05-07T12:55:41;25.20;72.40
12039;DHT22;6080;48.818;9.526;2023-05-07T12:58:08;25.10;73.20
12039;DHT22;6080;48.818;9.526;2023-05-07T13:00:39;25.00;72.80
12039;DHT22;6080;48.818;9.526;2023-05-07T13:03:05;24.70;73.60
12039;DHT22;6080;48.818;9.526;2023-05-07T13:05:31;24.60;74.90
12039;DHT22;6080;48.818;9.526;2023-05-07T13:07:58;24.50;75.60
12039;DHT22;6080;48.818;9.526;2023-05-07T13:10:24;24.50;76.70
12039;DHT22;6080;48.818;9.526;2023-05-07T13:12:51;24.40;76.80
12039;DHT22;6080;48.818;9.526;2023-05-07T13:15:17;24.30;75.20
12039;DHT22;6080;48.818;9.526;2023-05-07T13:17:43;24.30;75.10
12039;DHT22;6080;48.818;9.526;2023-05-07T13:20:11;24.10;75.60
12039;DHT22;6080;48.818;9.526;2023-05-07T13:22:39;23.90;79.20
12039;DHT22;6080;48.818;9.526;2023-05-07T13:25:05;23.60;81.20
12039;DHT22;6080;48.818;9.526;2023-05-07T13:27:31;23.50;83.50
12039;DHT22;6080;48.818;9.526;2023-05-07T13:29:57;23.30;82.60
12039;DHT22;6080;48.818;9.526;2023-05-07T13:32:23;23.20;83.80
12039;DHT22;6080;48.818;9.526;2023-05-07T13:34:49;23.00;85.10
12039;DHT22;6080;48.818;9.526;2023-05-07T13:37:15;22.90;86.20
12039;DHT22;6080;48.818;9.526;2023-05-07T13:39:40;22.90;86.50
12039;DHT22;6080;48.818;9.526;2023-05-07T13:42:06;22.70;86.10
12039;DHT22;6080;48.818;9.526;2023-05-07T13:44:32;22.30;90.20
12039;DHT22;6080;48.818;9.526;2023-05-07T13:46:58;21.90;91.70
12039;DHT22;6080;48.818;9.526;2023-05-07T13:49:24;21.60;93.10
12039;DHT22;6080;48.818;9.526;2023-05-07T13:51:50;21.40;94.30
12039;DHT22;6080;48.818;9.526;2023-05-07T13:54:16;21.30;95.50
12039;DHT22;6080;48.818;9.526;2023-05-07T13:56:42;21.10;95.70
12039;DHT22;6080;48.818;9.526;2023-05-07T13:59:07;21.00;96.00
12039;DHT22;6080;48.818;9.526;2023-05-07T14:01:33;21.00;95.20
12039;DHT22;6080;48.818;9.526;2023-05-07T14:03:59;20.90;95.50
12039;DHT22;6080;48.818;9.526;2023-05-07T14:06:25;21.00;96.00
12039;DHT22;6080;48.818;9.526;2023-05-07T14:08:51;20.90;96.60
12039;DHT22;6080;48.818;9.526;2023-05-07T14:11:17;21.00;96.90
12039;DHT22;6080;48.818;9.526;2023-05-07T14:13:43;21.00;97.10
12039;DHT22;6080;48.818;9.526;2023-05-07T14:16:09;21.20;97.10
12039;DHT22;6080;48.818;9.526;2023-05-07T14:18:34;21.30;96.80
12039;DHT22;6080;48.818;9.526;2023-05-07T14:21:04;21.20;98.00
12039;DHT22;6080;48.818;9.526;2023-05-07T14:23:31;21.10;99.90
12039;DHT22;6080;48.818;9.526;2023-05-07T14:25:57;21.00;99.90
12039;DHT22;6080;48.818;9.526;2023-05-07T14:28:23;20.90;99.90
12039;DHT22;6080;48.818;9.526;2023-05-07T14:30:49;20.80;99.90
12039;DHT22;6080;48.818;9.526;2023-05-07T14:33:15;20.90;99.90
12039;DHT22;6080;48.818;9.526;2023-05-07T14:35:41;20.90;99.90
12039;DHT22;6080;48.818;9.526;2023-05-07T14:38:07;20.80;99.90
12039;DHT22;6080;48.818;9.526;2023-05-07T14:40:32;20.60;99.90
12039;DHT22;6080;48.818;9.526;2023-05-07T14:42:58;20.20;99.90
12039;DHT22;6080;48.818;9.526;2023-05-07T14:45:24;19.80;99.90
12039;DHT22;6080;48.818;9.526;2023-05-07T14:47:49;19.50;99.90
12039;DHT22;6080;48.818;9.526;2023-05-07T14:50:15;19.20;99.90
12039;DHT22;6080;48.818;9.526;2023-05-07T14:52:41;19.00;99.90
12039;DHT22;6080;48.818;9.526;2023-05-07T14:55:07;18.80;99.90
12039;DHT22;6080;48.818;9.526;2023-05-07T14:57:33;18.70;99.90
12039;DHT22;6080;48.818;9.526;2023-05-07T15:00:01;18.70;99.90
12039;DHT22;6080;48.818;9.526;2023-05-07T15:02:30;18.70;99.90
12039;DHT22;6080;48.818;9.526;2023-05-07T15:04:55;18.80;99.90
12039;DHT22;6080;48.818;9.526;2023-05-07T15:07:21;18.80;99.90
12039;DHT22;6080;48.818;9.526;2023-05-07T15:09:47;18.80;99.90
12039;DHT22;6080;48.818;9.526;2023-05-07T15:12:13;18.90;99.90
12039;DHT22;6080;48.818;9.526;2023-05-07T15:14:39;19.00;99.90
12039;DHT22;6080;48.818;9.526;2023-05-07T15:17:05;19.20;99.90
12039;DHT22;6080;48.818;9.526;2023-05-07T15:19:31;19.40;99.90
12039;DHT22;6080;48.818;9.526;2023-05-07T15:21:57;19.50;99.90
12039;DHT22;6080;48.818;9.526;2023-05-07T15:24:23;19.50;99.90
12039;DHT22;6080;48.818;9.526;2023-05-07T15:26:51;19.60;99.90
12039;DHT22;6080;48.818;9.526;2023-05-07T15:29:17;19.70;99.90
12039;DHT22;6080;48.818;9.526;2023-05-07T15:31:43;19.70;99.90
12039;DHT22;6080;48.818;9.526;2023-05-07T15:34:09;19.60;99.90
12039;DHT22;6080;48.818;9.526;2023-05-07T15:36:34;19.50;99.90
12039;DHT22;6080;48.818;9.526;2023-05-07T15:39:01;19.60;99.90
12039;DHT22;6080;48.818;9.526;2023-05-07T15:41:28;19.60;99.90
12039;DHT22;6080;48.818;9.526;2023-05-07T15:43:54;19.50;99.90
12039;DHT22;6080;48.818;9.526;2023-05-07T15:46:21;19.40;99.90
12039;DHT22;6080;48.818;9.526;2023-05-07T15:48:49;19.00;99.90
12039;DHT22;6080;48.818;9.526;2023-05-07T15:51:15;18.60;99.90
12039;DHT22;6080;48.818;9.526;2023-05-07T15:53:41;18.20;99.90
12039;DHT22;6080;48.818;9.526;2023-05-07T15:56:07;17.80;99.90
12039;DHT22;6080;48.818;9.526;2023-05-07T15:58:33;17.40;99.90
12039;DHT22;6080;48.818;9.526;2023-05-07T16:00:59;17.40;99.90
12039;DHT22;6080;48.818;9.526;2023-05-07T16:03:26;17.40;99.90
12039;DHT22;6080;48.818;9.526;2023-05-07T16:05:52;17.10;99.90
12039;DHT22;6080;48.818;9.526;2023-05-07T16:08:18;17.00;99.90
12039;DHT22;6080;48.818;9.526;2023-05-07T16:10:44;16.90;99.90
12039;DHT22;6080;48.818;9.526;2023-05-07T16:13:10;16.90;99.90
12039;DHT22;6080;48.818;9.526;2023-05-07T16:15:35;16.90;99.90
12039;DHT22;6080;48.818;9.526;2023-05-07T16:18:01;16.90;99.90
12039;DHT22;6080;48.818;9.526;2023-05-07T16:20:28;16.80;99.90
12039;DHT22;6080;48.818;9.526;2023-05-07T16:22:55;16.70;99.90
12039;DHT22;6080;48.818;9.526;2023-05-07T16:25:21;16.90;99.90
12039;DHT22;6080;48.818;9.526;2023-05-07T16:27:46;16.80;99.90
12039;DHT22;6080;48.818;9.526;2023-05-07T16:30:12;16.70;99.90
12039;DHT22;6080;48.818;9.526;2023-05-07T16:32:38;16.70;99.90
12039;DHT22;6080;48.818;9.526;2023-05-07T16:35:04;16.60;99.90
12039;DHT22;6080;48.818;9.526;2023-05-07T16:37:32;16.70;99.90
12039;DHT22;6080;48.818;9.526;2023-05-07T16:40:02;16.70;99.90
12039;DHT22;6080;48.818;9.526;2023-05-07T16:42:33;16.60;99.90
12039;DHT22;6080;48.818;9.526;2023-05-07T16:44:59;16.60;99.90
12039;DHT22;6080;48.818;9.526;2023-05-07T16:47:25;16.70;99.90
12039;DHT22;6080;48.818;9.526;2023-05-07T16:49:51;16.60;99.90
12039;DHT22;6080;48.818;9.526;2023-05-07T16:52:17;16.50;99.90
12039;DHT22;6080;48.818;9.526;2023-05-07T16:54:43;16.40;99.90
12039;DHT22;6080;48.818;9.526;2023-05-07T16:57:08;16.50;99.90
12039;DHT22;6080;48.818;9.526;2023-05-07T16:59:34;16.40;99.90
12039;DHT22;6080;48.818;9.526;2023-05-07T17:02:00;16.50;99.90
12039;DHT22;6080;48.818;9.526;2023-05-07T17:04:26;16.50;99.90
12039;DHT22;6080;48.818;9.526;2023-05-07T17:06:52;16.50;99.90
12039;DHT22;6080;48.818;9.526;2023-05-07T17:09:18;16.60;99.90
12039;DHT22;6080;48.818;9.526;2023-05-07T17:11:44;16.60;99.90
12039;DHT22;6080;48.818;9.526;2023-05-07T17:14:10;16.70;99.90
12039;DHT22;6080;48.818;9.526;2023-05-07T17:16:36;16.60;99.90
12039;DHT22;6080;48.818;9.526;2023-05-07T17:19:01;16.50;99.90
12039;DHT22;6080;48.818;9.526;2023-05-07T17:21:27;16.40;99.90
12039;DHT22;6080;48.818;9.526;2023-05-07T17:23:53;16.30;99.90
12039;DHT22;6080;48.818;9.526;2023-05-07T17:26:19;16.50;99.90
12039;DHT22;6080;48.818;9.526;2023-05-07T17:28:45;16.50;99.90
12039;DHT22;6080;48.818;9.526;2023-05-07T17:31:11;16.40;99.90
12039;DHT22;6080;48.818;9.526;2023-05-07T17:33:37;16.30;99.90
12039;DHT22;6080;48.818;9.526;2023-05-07T17:36:03;16.30;99.90
12039;DHT22;6080;48.818;9.526;2023-05-07T17:38:29;16.20;99.90
12039;DHT22;6080;48.818;9.526;2023-05-07T17:40:58;16.20;99.90
12039;DHT22;6080;48.818;9.526;2023-05-07T17:43:24;16.10;99.90
12039;DHT22;6080;48.818;9.526;2023-05-07T17:45:49;16.10;99.90
12039;DHT22;6080;48.818;9.526;2023-05-07T17:48:15;16.20;99.90
12039;DHT22;6080;48.818;9.526;2023-05-07T17:50:42;16.30;99.90
12039;DHT22;6080;48.818;9.526;2023-05-07T17:53:12;16.40;99.90
12039;DHT22;6080;48.818;9.526;2023-05-07T17:55:42;16.50;99.90
12039;DHT22;6080;48.818;9.526;2023-05-07T17:58:08;16.50;99.90
12039;DHT22;6080;48.818;9.526;2023-05-07T18:00:35;16.50;99.90
12039;DHT22;6080;48.818;9.526;2023-05-07T18:03:01;16.40;99.90
12039;DHT22;6080;48.818;9.526;2023-05-07T18:05:28;16.50;99.90
12039;DHT22;6080;48.818;9.526;2023-05-07T18:07:54;16.50;99.90
12039;DHT22;6080;48.818;9.526;2023-05-07T18:10:21;16.50;99.90
12039;DHT22;6080;48.818;9.526;2023-05-07T18:12:47;16.40;99.90
12039;DHT22;6080;48.818;9.526;2023-05-07T18:15:13;16.30;99.90
12039;DHT22;6080;48.818;9.526;2023-05-07T18:17:39;16.30;99.90
12039;DHT22;6080;48.818;9.526;2023-05-07T18:20:05;16.30;99.90
12039;DHT22;6080;48.818;9.526;2023-05-07T18:22:34;16.20;99.90
12039;DHT22;6080;48.818;9.526;2023-05-07T18:24:59;16.20;99.90
12039;DHT22;6080;48.818;9.526;2023-05-07T18:27:26;16.20;99.90
12039;DHT22;6080;48.818;9.526;2023-05-07T18:29:52;16.10;99.90
12039;DHT22;6080;48.818;9.526;2023-05-07T18:32:18;16.00;99.90
12039;DHT22;6080;48.818;9.526;2023-05-07T18:34:43;16.00;99.90
12039;DHT22;6080;48.818;9.526;2023-05-07T18:37:09;16.00;99.90
12039;DHT22;6080;48.818;9.526;2023-05-07T18:39:35;16.00;99.90
12039;DHT22;6080;48.818;9.526;2023-05-07T18:42:01;16.10;99.90
12039;DHT22;6080;48.818;9.526;2023-05-07T18:44:30;16.20;99.90
12039;DHT22;6080;48.818;9.526;2023-05-07T18:46:56;16.20;99.90
12039;DHT22;6080;48.818;9.526;2023-05-07T18:49:22;16.20;99.90
12039;DHT22;6080;48.818;9.526;2023-05-07T18:51:48;16.20;99.90